createdAt,value
2022-10-06T05:41:45.633Z,12.20
2022-10-06T05:44:54.360Z,16.92
2022-10-06T05:47:57.876Z,30.40
2022-10-06T05:51:10.050Z,26.00
2022-10-06T05:54:15.811Z,16.50
2022-10-06T05:57:19.438Z,15.17
2022-10-06T06:00:22.743Z,14.10
2022-10-06T06:03:26.082Z,14.52
2022-10-06T06:06:33.839Z,15.10
2022-10-06T06:09:40.592Z,16.87
2022-10-06T06:12:44.094Z,12.57
2022-10-06T06:16:07.679Z,14.32
2022-10-06T06:19:13.454Z,11.73
2022-10-06T06:22:19.166Z,12.75
2022-10-06T06:25:24.928Z,15.93
2022-10-06T06:28:30.129Z,14.17
2022-10-06T06:31:36.753Z,11.50
2022-10-06T06:34:41.850Z,12.52
2022-10-06T06:37:47.511Z,12.43
2022-10-06T06:40:53.209Z,11.63
2022-10-06T06:43:58.091Z,11.77
2022-10-06T06:47:27.546Z,13.02
2022-10-06T06:50:33.459Z,12.20
2022-10-06T06:53:36.801Z,10.82
2022-10-06T06:56:42.754Z,11.13
2022-10-06T06:59:47.226Z,14.53
2022-10-06T07:02:56.236Z,11.45
2022-10-06T07:06:11.412Z,11.30
2022-10-06T07:09:15.819Z,14.52
2022-10-06T07:12:19.806Z,11.67
2022-10-06T07:15:47.231Z,12.50
2022-10-06T07:19:09.270Z,10.20
2022-10-06T07:22:33.836Z,10.93
2022-10-06T07:25:39.243Z,11.57
2022-10-06T07:28:45.733Z,13.03
2022-10-06T07:31:51.994Z,10.63
2022-10-06T07:34:55.987Z,10.48
2022-10-06T07:38:08.082Z,12.63
2022-10-06T07:41:21.933Z,9.95
2022-10-06T07:44:29.406Z,10.37
2022-10-06T07:47:33.653Z,10.07
2022-10-06T07:50:41.342Z,10.02
2022-10-06T07:53:46.685Z,10.93
2022-10-06T07:57:09.833Z,10.38
2022-10-06T08:00:16.774Z,8.70
2022-10-06T08:03:21.161Z,9.37
2022-10-06T08:06:24.758Z,9.30
2022-10-06T08:09:30.734Z,9.52
2022-10-06T08:12:34.375Z,8.65
2022-10-06T08:15:37.857Z,11.20
2022-10-06T08:18:46.429Z,8.60
2022-10-06T08:21:50.798Z,11.23
2022-10-06T08:25:05.844Z,9.23
2022-10-06T08:28:14.133Z,9.05
2022-10-06T08:31:21.326Z,8.03
2022-10-06T08:34:25.048Z,8.63
2022-10-06T08:37:28.529Z,9.90
2022-10-06T08:40:32.746Z,8.40
2022-10-06T08:43:36.191Z,7.82
2022-10-06T08:46:50.621Z,7.77
2022-10-06T08:49:57.847Z,7.20
2022-10-06T08:53:39.500Z,6.72
2022-10-06T08:57:15.079Z,9.48
2022-10-06T09:00:21.501Z,7.38
2022-10-06T09:03:30.079Z,9.57
2022-10-06T09:06:46.049Z,6.30
2022-10-06T09:10:17.296Z,8.90
2022-10-06T09:13:28.946Z,6.32
2022-10-06T09:16:39.596Z,7.72
2022-10-06T09:19:51.674Z,6.23
2022-10-06T09:22:57.558Z,6.23
2022-10-06T09:26:02.042Z,6.40
2022-10-06T09:29:05.890Z,6.50
2022-10-06T09:32:11.101Z,5.95
2022-10-06T09:35:23.442Z,8.17
2022-10-06T09:38:47.822Z,5.73
2022-10-06T09:41:51.121Z,4.97
2022-10-06T09:45:05.961Z,5.30
2022-10-06T09:48:27.909Z,7.03
2022-10-06T09:51:34.065Z,8.10
2022-10-06T09:54:38.800Z,8.63
2022-10-06T09:57:53.448Z,8.05
2022-10-06T10:01:00.275Z,6.30
2022-10-06T10:04:21.524Z,5.82
2022-10-06T10:07:29.923Z,7.73
2022-10-06T10:10:35.475Z,7.47
2022-10-06T10:13:43.478Z,7.57
2022-10-06T10:16:53.138Z,6.50
2022-10-06T10:19:59.562Z,8.60
2022-10-06T10:23:05.393Z,9.37
2022-10-06T10:26:45.973Z,7.83
2022-10-06T10:29:49.565Z,7.32
2022-10-06T10:33:04.784Z,5.93
2022-10-06T10:36:14.555Z,5.22
2022-10-06T10:39:31.751Z,8.10
2022-10-06T10:43:07.105Z,7.13
2022-10-06T10:46:13.888Z,6.40
2022-10-06T10:49:21.467Z,7.05
2022-10-06T10:52:30.475Z,6.38
2022-10-06T10:55:45.732Z,7.57
2022-10-06T10:58:59.813Z,7.73
2022-10-06T11:02:18.766Z,8.10
2022-10-06T11:05:40.229Z,9.93
2022-10-06T11:09:05.016Z,5.95
2022-10-06T11:12:33.827Z,8.57
2022-10-06T11:15:55.630Z,5.77
2022-10-06T11:19:05.765Z,9.73
2022-10-06T11:22:23.474Z,7.40
2022-10-06T11:25:34.988Z,10.15
2022-10-06T11:29:09.456Z,6.40
2022-10-06T11:32:31.509Z,10.37
2022-10-06T11:35:38.775Z,8.55
2022-10-06T11:39:01.278Z,6.47
2022-10-06T11:42:21.552Z,9.75
2022-10-06T11:45:51.054Z,8.77
2022-10-06T11:49:14.579Z,9.77
2022-10-06T11:52:17.805Z,8.07
2022-10-06T11:55:24.005Z,7.68
2022-10-06T11:58:41.945Z,9.75
2022-10-06T12:01:47.808Z,6.00
2022-10-06T12:05:28.656Z,7.37
2022-10-06T12:08:37.273Z,6.72
2022-10-06T12:11:45.451Z,6.50
2022-10-06T12:18:47.805Z,5.53
2022-10-06T12:22:15.083Z,6.50
2022-10-06T12:25:32.520Z,7.03
2022-10-06T12:29:05.546Z,8.93
2022-10-06T12:32:24.192Z,6.43
2022-10-06T12:35:39.963Z,11.47
2022-10-06T12:39:06.784Z,7.90
2022-10-06T12:42:24.563Z,7.38
2022-10-06T12:45:28.576Z,9.50
2022-10-06T12:48:40.225Z,7.97
2022-10-06T12:51:46.406Z,8.20
2022-10-06T12:55:18.996Z,8.13
2022-10-06T12:58:33.562Z,8.32
2022-10-06T13:01:37.166Z,8.20
2022-10-06T13:04:44.820Z,10.15
2022-10-06T13:08:02.997Z,10.23
2022-10-06T13:11:28.384Z,7.07
2022-10-06T13:14:31.631Z,9.65
2022-10-06T13:17:35.362Z,9.15
2022-10-06T13:20:54.979Z,7.75
2022-10-06T13:23:58.437Z,7.13
2022-10-06T13:27:03.032Z,6.80
2022-10-06T13:30:26.532Z,9.88
2022-10-06T13:33:39.081Z,10.75
2022-10-06T13:36:45.625Z,9.18
2022-10-06T13:39:48.961Z,9.67
2022-10-06T13:42:52.246Z,8.67
2022-10-06T13:45:57.305Z,10.00
2022-10-06T13:49:18.409Z,9.70
2022-10-06T13:52:38.670Z,9.80
2022-10-06T13:55:50.917Z,8.27
2022-10-06T13:58:54.511Z,10.10
2022-10-06T14:02:22.253Z,13.43
2022-10-06T14:05:31.756Z,9.35
2022-10-06T14:08:36.213Z,8.07
2022-10-06T14:11:43.369Z,11.27
2022-10-06T14:14:51.356Z,7.37
2022-10-06T14:18:01.583Z,9.50
2022-10-06T14:21:36.898Z,7.35
2022-10-06T14:24:51.565Z,8.60
2022-10-06T14:27:55.293Z,13.60
2022-10-06T14:30:58.693Z,8.87
2022-10-06T14:34:03.230Z,8.70
2022-10-06T14:37:06.607Z,5.93
2022-10-06T14:40:12.241Z,6.63
2022-10-06T14:43:15.812Z,7.60
2022-10-06T14:46:19.202Z,7.50
2022-10-06T14:49:22.772Z,7.38
2022-10-06T14:52:26.181Z,6.07
2022-10-06T14:55:31.173Z,7.03
2022-10-06T14:58:38.667Z,7.10
2022-10-06T15:01:42.745Z,7.97
2022-10-06T15:04:46.058Z,6.72
2022-10-06T15:08:09.831Z,7.80
2022-10-06T15:11:13.081Z,7.32
2022-10-06T15:14:16.453Z,6.80
2022-10-06T15:17:19.822Z,30.00
2022-10-06T15:20:23.179Z,36.45
2022-10-06T15:23:26.430Z,23.98
2022-10-06T15:26:49.290Z,15.68
2022-10-06T15:29:52.492Z,10.87
2022-10-06T15:32:55.798Z,8.80
2022-10-06T15:36:19.479Z,8.50
2022-10-06T15:39:25.832Z,8.75
2022-10-06T15:42:29.097Z,10.00
2022-10-06T15:45:32.488Z,27.73
2022-10-06T15:48:35.709Z,103.27
2022-10-06T15:51:56.907Z,49.25
2022-10-06T15:55:00.368Z,24.15
2022-10-06T15:58:03.657Z,25.65
2022-10-06T16:01:11.525Z,37.87
2022-10-06T16:04:24.581Z,8.57
2022-10-06T16:07:28.789Z,21.15
2022-10-06T16:10:32.272Z,17.80
2022-10-06T16:13:35.464Z,39.10
2022-10-06T16:16:43.306Z,28.90
2022-10-06T16:19:47.322Z,27.73
2022-10-06T16:22:51.172Z,28.30
2022-10-06T16:25:54.439Z,36.78
2022-10-06T16:28:58.142Z,34.42
2022-10-06T16:32:01.321Z,38.90
2022-10-06T16:35:04.926Z,43.07
2022-10-06T16:38:08.376Z,52.13
2022-10-06T16:41:11.896Z,46.42
2022-10-06T16:44:15.283Z,47.05
2022-10-06T16:47:18.734Z,47.57
2022-10-06T16:50:21.962Z,50.70
2022-10-06T16:53:25.270Z,48.00
2022-10-06T16:56:34.498Z,138.65
2022-10-06T16:59:37.740Z,107.13
2022-10-06T17:02:41.371Z,162.03
2022-10-06T17:05:44.808Z,112.70
2022-10-06T17:08:48.115Z,67.43
2022-10-06T17:11:53.754Z,57.38
2022-10-06T17:14:57.024Z,51.45
2022-10-06T17:18:00.304Z,69.07
2022-10-06T17:21:25.926Z,58.77
2022-10-06T17:24:31.390Z,95.47
2022-10-06T17:27:41.792Z,117.68
2022-10-06T17:30:53.085Z,101.05
2022-10-06T17:33:56.443Z,89.13
2022-10-06T17:37:01.674Z,58.20
2022-10-06T17:40:05.384Z,71.57
2022-10-06T17:43:09.325Z,54.28
2022-10-06T17:46:14.600Z,59.95
2022-10-06T17:49:20.800Z,54.63
2022-10-06T17:52:24.473Z,74.60
2022-10-06T17:55:28.074Z,90.75
2022-10-06T17:58:31.456Z,107.90
2022-10-06T18:01:36.139Z,112.47
2022-10-06T18:04:40.037Z,79.90
2022-10-06T18:07:43.346Z,87.53
2022-10-06T18:11:07.976Z,55.13
2022-10-06T18:14:13.909Z,84.93
2022-10-06T18:17:18.379Z,91.72
2022-10-06T18:20:21.679Z,84.20
2022-10-06T18:23:25.896Z,78.63
2022-10-06T18:26:29.177Z,77.10
2022-10-06T18:29:35.438Z,71.28
2022-10-06T18:34:58.814Z,82.38
2022-10-06T18:36:18.903Z,87.27
2022-10-06T18:39:22.676Z,97.90
2022-10-06T18:42:25.925Z,82.53
2022-10-06T18:45:47.628Z,63.38
2022-10-06T18:48:58.297Z,73.93
2022-10-06T18:52:01.718Z,61.23
2022-10-06T18:55:05.297Z,97.93
2022-10-06T18:58:08.684Z,80.85
2022-10-06T19:01:12.706Z,97.28
2022-10-06T19:04:18.717Z,87.07
2022-10-06T19:07:22.483Z,96.97
2022-10-06T19:10:28.176Z,82.57
2022-10-06T19:13:31.448Z,114.70
2022-10-06T19:16:35.092Z,70.45
2022-10-06T19:19:38.602Z,157.88
2022-10-06T19:22:43.541Z,122.23
2022-10-06T19:25:49.324Z,129.73
2022-10-06T19:28:53.727Z,134.10
2022-10-06T19:31:59.747Z,129.60
2022-10-06T19:35:07.753Z,143.23
2022-10-06T19:38:13.353Z,127.07
2022-10-06T19:41:35.223Z,102.47
2022-10-06T19:44:42.966Z,95.72
2022-10-06T19:47:51.388Z,75.45
2022-10-06T19:50:54.829Z,72.35
2022-10-06T19:53:58.104Z,83.00
2022-10-06T19:57:05.346Z,62.17
2022-10-06T20:00:10.780Z,55.90
2022-10-06T20:03:17.124Z,42.67
2022-10-06T20:06:20.990Z,47.95
2022-10-06T20:09:24.276Z,46.03
2022-10-06T20:12:28.701Z,47.40
2022-10-06T20:15:33.931Z,52.08
2022-10-06T20:18:40.119Z,61.08
2022-10-06T20:21:43.773Z,60.65
2022-10-06T20:24:48.144Z,55.90
2022-10-06T20:27:51.393Z,61.70
2022-10-06T20:30:54.697Z,56.50
2022-10-06T20:33:59.341Z,56.42
2022-10-06T20:37:05.198Z,56.65
2022-10-06T20:40:28.406Z,51.93
2022-10-06T20:43:31.739Z,48.90
2022-10-06T20:46:37.245Z,46.13
2022-10-06T20:49:42.606Z,43.55
2022-10-06T20:52:47.115Z,46.72
2022-10-06T20:55:56.444Z,41.60
2022-10-06T20:58:59.898Z,42.30
2022-10-06T21:02:04.520Z,42.65
2022-10-06T21:05:09.038Z,36.85
2022-10-06T21:08:12.184Z,35.78
2022-10-06T21:11:18.996Z,34.83
2022-10-06T21:14:22.148Z,37.87
2022-10-06T21:17:25.380Z,37.05
2022-10-06T21:20:29.727Z,26.48
2022-10-06T21:23:40.811Z,20.52
2022-10-06T21:26:44.340Z,24.30
2022-10-06T21:29:47.980Z,25.30
2022-10-06T21:32:51.361Z,29.40
2022-10-06T21:36:05.101Z,32.63
2022-10-06T21:39:09.060Z,32.08
2022-10-06T21:42:12.319Z,34.20
2022-10-06T21:45:15.751Z,30.17
2022-10-06T21:48:19.191Z,28.77
2022-10-06T21:51:24.492Z,31.42
2022-10-06T21:54:27.702Z,35.20
2022-10-06T21:57:30.832Z,33.30
2022-10-06T22:00:34.087Z,32.77
2022-10-06T22:03:38.831Z,31.30
2022-10-06T22:06:43.617Z,30.33
2022-10-06T22:09:46.884Z,25.48
2022-10-06T22:12:50.131Z,25.67
2022-10-06T22:15:53.426Z,21.63
2022-10-06T22:18:56.854Z,25.88
2022-10-06T22:22:00.121Z,26.42
2022-10-06T22:25:03.408Z,31.45
2022-10-06T22:28:06.672Z,30.33
2022-10-06T22:31:11.390Z,23.87
2022-10-06T22:34:17.827Z,23.30
2022-10-06T22:37:21.041Z,24.70
2022-10-06T22:40:24.251Z,27.55
2022-10-06T22:43:28.204Z,29.13
2022-10-06T22:46:35.423Z,24.77
2022-10-06T22:49:38.796Z,25.85
2022-10-06T22:52:42.126Z,27.85
2022-10-06T22:55:45.595Z,28.10
2022-10-06T22:58:49.059Z,28.10
2022-10-06T23:01:54.034Z,28.13
2022-10-06T23:04:57.237Z,27.40
2022-10-06T23:08:01.223Z,33.38
2022-10-06T23:11:10.107Z,30.40
2022-10-06T23:14:13.299Z,30.50
2022-10-06T23:17:16.562Z,28.53
2022-10-06T23:20:21.028Z,28.88
2022-10-06T23:23:24.248Z,28.75
2022-10-06T23:26:28.555Z,25.05
2022-10-06T23:29:31.891Z,26.80
2022-10-06T23:32:37.624Z,28.07
2022-10-06T23:35:40.893Z,31.85
2022-10-06T23:38:45.350Z,31.40
2022-10-06T23:41:48.615Z,34.33
2022-10-06T23:44:51.845Z,33.27
2022-10-06T23:47:55.090Z,37.30
2022-10-06T23:51:07.259Z,34.58
2022-10-06T23:54:10.746Z,26.70
2022-10-06T23:57:14.059Z,29.92
